Time;durP1;ratioP1;P1;durP2;ratioP2;P2;SDS_P1;SDS_P2;PMS_P1;PMS_P2;Temp;Humidity;BMP_temperature;BMP_pressure;BME280_temperature;BME280_humidity;BME280_pressure;Samples;Min_cycle;Max_cycle;Signal;HPM_P1;HPM_P2
2022/10/09 00:00:30;;;;;;;7.55;3.05;;;;;;;;;;5007312;28;20506;-67
2022/10/09 00:02:55;;;;;;;31.60;2.80;;;;;;;;;;5007099;28;20443;-67
2022/10/09 00:05:22;;;;;;;8.68;3.15;;;;;;;;;;5007120;28;20388;-67
2022/10/09 00:07:48;;;;;;;5.68;2.85;;;;;;;;;;5007061;28;20152;-67
2022/10/09 00:10:13;;;;;;;6.78;2.55;;;;;;;;;;4993434;28;20089;-67
2022/10/09 00:12:38;;;;;;;7.40;2.60;;;;;;;;;;5010662;28;20431;-68
2022/10/09 00:15:04;;;;;;;7.45;2.85;;;;;;;;;;5010228;28;20472;-68
2022/10/09 00:17:29;;;;;;;7.00;2.80;;;;;;;;;;5010948;28;20482;-68
2022/10/09 00:19:55;;;;;;;9.02;3.72;;;;;;;;;;5011303;28;20384;-67
2022/10/09 00:22:20;;;;;;;11.98;2.85;;;;;;;;;;5010563;28;20506;-67
2022/10/09 00:24:45;;;;;;;7.63;3.38;;;;;;;;;;5010488;28;20424;-68
2022/10/09 00:27:11;;;;;;;10.05;3.38;;;;;;;;;;5010557;28;20385;-67
2022/10/09 00:29:36;;;;;;;11.35;3.53;;;;;;;;;;4992376;28;20168;-67
2022/10/09 00:32:01;;;;;;;8.57;3.30;;;;;;;;;;5010547;28;20386;-67
2022/10/09 00:34:27;;;;;;;8.20;3.45;;;;;;;;;;5011417;28;20458;-67
2022/10/09 00:36:52;;;;;;;9.95;3.28;;;;;;;;;;5010231;28;20021;-67
2022/10/09 00:39:17;;;;;;;7.18;3.63;;;;;;;;;;5011990;28;20535;-67
2022/10/09 00:41:42;;;;;;;8.80;3.03;;;;;;;;;;4992008;28;20585;-68
2022/10/09 00:45:02;;;;;;;6.65;2.90;;;;;;;;;;5010141;28;20514;-68
2022/10/09 00:47:48;;;;;;;5.22;2.50;;;;;;;;;;4910051;28;20478;-67
2022/10/09 00:50:21;;;;;;;4.05;2.05;;;;;;;;;;4984517;28;20448;-67
2022/10/09 00:52:48;;;;;;;7.45;2.33;;;;;;;;;;4992147;28;20285;-67
2022/10/09 00:55:14;;;;;;;11.70;2.17;;;;;;;;;;5010166;28;20028;-67
2022/10/09 00:57:40;;;;;;;6.20;2.88;;;;;;;;;;4991838;28;20490;-67
2022/10/09 01:00:09;;;;;;;6.25;2.15;;;;;;;;;;5010470;28;20359;-68
2022/10/09 01:02:34;;;;;;;5.43;1.98;;;;;;;;;;4994671;28;20323;-68
2022/10/09 01:05:00;;;;;;;8.70;2.83;;;;;;;;;;5010305;28;20359;-67
2022/10/09 01:08:03;;;;;;;4.80;2.33;;;;;;;;;;5008127;28;20436;-68
2022/10/09 01:10:38;;;;;;;5.45;2.13;;;;;;;;;;5010609;28;20458;-67
2022/10/09 01:13:22;;;;;;;13.73;2.53;;;;;;;;;;5007948;28;20386;-67
2022/10/09 01:15:54;;;;;;;10.20;1.95;;;;;;;;;;5022934;28;20527;-67
2022/10/09 01:18:46;;;;;;;11.40;3.08;;;;;;;;;;5012421;28;20319;-67
2022/10/09 01:21:19;;;;;;;6.65;2.90;;;;;;;;;;4993695;28;20339;-67
2022/10/09 01:24:20;;;;;;;13.18;4.65;;;;;;;;;;5011318;28;20394;-67
2022/10/09 01:26:45;;;;;;;12.95;4.40;;;;;;;;;;4978871;28;20467;-68
2022/10/09 01:29:12;;;;;;;8.50;3.50;;;;;;;;;;5029824;28;20435;-68
2022/10/09 01:31:41;;;;;;;13.82;3.80;;;;;;;;;;5011050;28;20082;-68
2022/10/09 01:34:06;;;;;;;;;;;;;;;;;;5029350;28;20485;-67
2022/10/09 01:36:32;;;;;;;18.02;5.28;;;;;;;;;;5011162;28;20317;-67
2022/10/09 01:38:59;;;;;;;23.55;5.15;;;;;;;;;;5030195;28;20054;-67
2022/10/09 01:41:25;;;;;;;27.52;6.35;;;;;;;;;;5029853;28;20327;-67
2022/10/09 01:43:50;;;;;;;18.52;4.90;;;;;;;;;;5011755;28;20316;-67
2022/10/09 01:46:20;;;;;;;22.20;5.65;;;;;;;;;;5029868;28;20114;-67
2022/10/09 01:49:35;;;;;;;19.60;5.43;;;;;;;;;;5011891;28;20343;-67
2022/10/09 01:52:07;;;;;;;19.55;4.65;;;;;;;;;;5020805;28;20131;-67
2022/10/09 01:54:35;;;;;;;10.75;3.50;;;;;;;;;;5011124;28;20506;-67
2022/10/09 01:57:04;;;;;;;15.02;4.32;;;;;;;;;;5028867;28;20492;-67
2022/10/09 01:59:29;;;;;;;16.52;3.78;;;;;;;;;;5010732;28;20082;-67
2022/10/09 02:01:55;;;;;;;10.60;3.17;;;;;;;;;;5010532;28;20028;-67
2022/10/09 02:04:22;;;;;;;14.75;5.40;;;;;;;;;;5028561;28;20024;-67
2022/10/09 02:06:47;;;;;;;13.45;4.88;;;;;;;;;;5010240;28;20515;-67
2022/10/09 02:09:14;;;;;;;12.77;3.83;;;;;;;;;;5010819;28;20451;-67
2022/10/09 02:11:41;;;;;;;15.52;4.53;;;;;;;;;;4993665;28;20366;-68
2022/10/09 02:14:06;;;;;;;12.93;4.03;;;;;;;;;;5010670;28;20447;-68
2022/10/09 02:16:38;;;;;;;10.02;3.83;;;;;;;;;;5007282;28;20355;-67
2022/10/09 02:19:24;;;;;;;8.30;4.03;;;;;;;;;;5008332;28;20440;-67
2022/10/09 02:21:54;;;;;;;9.75;4.00;;;;;;;;;;5006901;28;20343;-67
2022/10/09 02:24:21;;;;;;;15.75;5.32;;;;;;;;;;5006857;28;20503;-67
2022/10/09 02:26:46;;;;;;;11.52;4.43;;;;;;;;;;5006680;28;20435;-67
2022/10/09 02:29:13;;;;;;;7.78;3.10;;;;;;;;;;5009708;28;20327;-67
2022/10/09 02:31:40;;;;;;;12.40;3.55;;;;;;;;;;5006737;28;20346;-68
2022/10/09 02:34:07;;;;;;;5.47;2.60;;;;;;;;;;5006637;28;20482;-67
2022/10/09 02:36:34;;;;;;;8.70;2.33;;;;;;;;;;5008629;28;20451;-67
2022/10/09 02:38:59;;;;;;;10.82;3.40;;;;;;;;;;5007904;28;20463;-67
2022/10/09 02:41:25;;;;;;;6.35;2.10;;;;;;;;;;5006660;28;20478;-67
2022/10/09 02:43:51;;;;;;;5.75;2.38;;;;;;;;;;5008015;28;20428;-67
2022/10/09 02:46:16;;;;;;;5.10;1.67;;;;;;;;;;5008948;28;20447;-67
2022/10/09 02:48:42;;;;;;;3.42;1.65;;;;;;;;;;5007851;28;20127;-67
2022/10/09 02:51:07;;;;;;;9.35;1.65;;;;;;;;;;5007716;28;20447;-68
2022/10/09 02:53:33;;;;;;;4.85;2.08;;;;;;;;;;5006479;28;20508;-67
2022/10/09 02:55:58;;;;;;;5.43;2.10;;;;;;;;;;5009507;28;20601;-67
2022/10/09 02:58:23;;;;;;;6.35;2.83;;;;;;;;;;5007756;28;20501;-67
2022/10/09 03:00:50;;;;;;;4.43;1.98;;;;;;;;;;5007857;28;20060;-67
2022/10/09 03:03:16;;;;;;;4.88;2.05;;;;;;;;;;5006430;28;20329;-67
2022/10/09 03:05:41;;;;;;;6.70;2.15;;;;;;;;;;5006440;28;20454;-67
2022/10/09 03:08:07;;;;;;;6.93;2.00;;;;;;;;;;5006420;28;20367;-67
2022/10/09 03:10:32;;;;;;;4.75;2.00;;;;;;;;;;5007615;28;20439;-67
2022/10/09 03:12:57;;;;;;;8.80;2.22;;;;;;;;;;5005931;28;20336;-67
2022/10/09 03:15:23;;;;;;;4.97;1.67;;;;;;;;;;5017160;28;20442;-67
2022/10/09 03:17:48;;;;;;;6.13;1.75;;;;;;;;;;5028114;28;20107;-67
2022/10/09 03:20:14;;;;;;;5.07;1.70;;;;;;;;;;5028084;28;20439;-68
2022/10/09 03:22:39;;;;;;;5.50;1.67;;;;;;;;;;5028873;28;20491;-68
2022/10/09 03:25:05;;;;;;;4.40;1.60;;;;;;;;;;5027526;28;20343;-67
2022/10/09 03:27:30;;;;;;;7.65;2.00;;;;;;;;;;5027819;28;20431;-67
2022/10/09 03:29:57;;;;;;;5.32;1.83;;;;;;;;;;4663410;28;10001373;-67
2022/10/09 03:32:23;;;;;;;4.95;1.67;;;;;;;;;;5027371;28;20450;-68
2022/10/09 03:34:48;;;;;;;6.50;1.80;;;;;;;;;;5029008;28;20334;-67
2022/10/09 03:37:13;;;;;;;2.95;2.03;;;;;;;;;;5027424;28;20399;-68
2022/10/09 03:39:38;;;;;;;6.95;1.92;;;;;;;;;;5009912;28;20307;-67
2022/10/09 03:42:04;;;;;;;6.35;2.15;;;;;;;;;;5027619;28;20330;-67
2022/10/09 03:44:29;;;;;;;4.07;1.75;;;;;;;;;;5030073;28;20324;-67
2022/10/09 03:46:54;;;;;;;2.45;1.50;;;;;;;;;;5031332;28;20020;-67
2022/10/09 03:49:20;;;;;;;5.68;2.20;;;;;;;;;;5031095;28;20499;-67
2022/10/09 03:51:45;;;;;;;3.78;2.10;;;;;;;;;;5012778;28;20324;-68
2022/10/09 03:54:10;;;;;;;3.60;1.67;;;;;;;;;;5031100;28;20351;-70
2022/10/09 03:56:36;;;;;;;5.55;1.52;;;;;;;;;;5032520;28;20394;-67
2022/10/09 03:59:04;;;;;;;6.13;1.77;;;;;;;;;;5012918;28;20502;-67
2022/10/09 04:01:30;;;;;;;5.78;1.70;;;;;;;;;;5030941;28;20479;-67
2022/10/09 04:03:55;;;;;;;3.28;1.80;;;;;;;;;;5031783;28;20391;-68
2022/10/09 04:06:20;;;;;;;3.30;1.67;;;;;;;;;;5013350;28;20369;-67
2022/10/09 04:08:46;;;;;;;4.07;2.00;;;;;;;;;;5031027;28;20093;-68
2022/10/09 04:11:11;;;;;;;7.32;1.67;;;;;;;;;;5031015;28;20414;-67
2022/10/09 04:13:36;;;;;;;2.22;1.38;;;;;;;;;;5030669;28;20346;-67
2022/10/09 04:16:02;;;;;;;3.50;1.25;;;;;;;;;;5030069;28;20206;-68
2022/10/09 04:18:27;;;;;;;3.55;1.45;;;;;;;;;;5030803;28;20427;-67
2022/10/09 04:20:54;;;;;;;2.80;1.42;;;;;;;;;;5030600;28;20431;-67
2022/10/09 04:23:22;;;;;;;5.88;1.42;;;;;;;;;;5030415;28;20119;-67
2022/10/09 04:25:52;;;;;;;3.78;1.63;;;;;;;;;;5012207;28;20083;-67
2022/10/09 04:28:17;;;;;;;8.93;1.75;;;;;;;;;;5012226;28;20343;-68
2022/10/09 04:30:42;;;;;;;9.15;1.52;;;;;;;;;;5031614;28;20393;-67
2022/10/09 04:33:08;;;;;;;6.65;1.98;;;;;;;;;;5030402;28;20430;-67
2022/10/09 04:35:33;;;;;;;3.45;1.40;;;;;;;;;;5011979;28;20427;-67
2022/10/09 04:37:58;;;;;;;4.32;1.52;;;;;;;;;;5030176;28;20342;-67
2022/10/09 04:40:23;;;;;;;2.65;1.65;;;;;;;;;;5030491;28;20458;-67
2022/10/09 04:42:49;;;;;;;1.42;1.00;;;;;;;;;;5030281;28;20343;-67
2022/10/09 04:45:14;;;;;;;2.95;1.30;;;;;;;;;;5030396;28;20453;-67
2022/10/09 04:47:40;;;;;;;3.60;1.25;;;;;;;;;;5030649;28;20503;-67
2022/10/09 04:50:05;;;;;;;2.30;1.38;;;;;;;;;;5030014;28;20027;-67
2022/10/09 04:52:31;;;;;;;3.20;1.20;;;;;;;;;;5030418;28;20419;-68
2022/10/09 04:54:57;;;;;;;2.33;1.35;;;;;;;;;;5010400;28;20413;-67
2022/10/09 04:57:22;;;;;;;5.20;2.30;;;;;;;;;;5011580;28;20339;-67
2022/10/09 04:59:47;;;;;;;5.53;1.42;;;;;;;;;;5011655;28;20421;-68
2022/10/09 05:02:13;;;;;;;4.85;1.70;;;;;;;;;;5030105;28;20477;-67
2022/10/09 05:04:38;;;;;;;3.33;1.52;;;;;;;;;;5029923;28;20535;-67
2022/10/09 05:07:03;;;;;;;3.15;1.50;;;;;;;;;;5029898;28;20418;-67
2022/10/09 05:09:29;;;;;;;5.57;1.75;;;;;;;;;;5031317;28;20494;-68
2022/10/09 05:11:54;;;;;;;4.88;1.67;;;;;;;;;;5029848;28;20435;-67
2022/10/09 05:14:19;;;;;;;4.88;1.50;;;;;;;;;;5010946;28;20417;-68
2022/10/09 05:16:45;;;;;;;5.05;1.92;;;;;;;;;;5012028;28;20498;-68
2022/10/09 05:19:10;;;;;;;6.38;1.58;;;;;;;;;;5029590;28;20338;-68
2022/10/09 05:21:35;;;;;;;2.58;1.30;;;;;;;;;;5029398;28;20054;-67
2022/10/09 05:24:01;;;;;;;5.47;1.30;;;;;;;;;;5012433;28;20439;-67
2022/10/09 05:26:26;;;;;;;3.08;1.33;;;;;;;;;;5029551;28;20345;-67
2022/10/09 05:28:52;;;;;;;2.53;1.40;;;;;;;;;;5029432;28;20123;-68
2022/10/09 05:31:28;;;;;;;2.90;1.60;;;;;;;;;;5011416;28;20476;-67
2022/10/09 05:33:56;;;;;;;4.22;1.60;;;;;;;;;;5010886;28;20054;-67
2022/10/09 05:36:22;;;;;;;4.03;1.55;;;;;;;;;;5011264;28;20016;-68
2022/10/09 05:38:47;;;;;;;8.45;1.65;;;;;;;;;;5011027;28;20036;-67
2022/10/09 05:41:15;;;;;;;4.47;1.50;;;;;;;;;;5030477;28;20327;-67
2022/10/09 05:43:42;;;;;;;2.33;1.40;;;;;;;;;;5029059;28;20346;-67
2022/10/09 05:46:13;;;;;;;3.42;1.65;;;;;;;;;;5010834;28;20343;-67
2022/10/09 05:48:40;;;;;;;3.15;1.50;;;;;;;;;;5010629;28;20024;-67
2022/10/09 05:51:16;;;;;;;2.47;1.42;;;;;;;;;;5029606;28;20448;-67
2022/10/09 05:53:43;;;;;;;8.18;1.77;;;;;;;;;;5028460;28;20090;-67
2022/10/09 05:56:10;;;;;;;3.67;1.73;;;;;;;;;;5011388;28;20343;-68
2022/10/09 05:58:36;;;;;;;4.30;1.77;;;;;;;;;;5010597;28;20024;-67
2022/10/09 06:01:01;;;;;;;4.25;1.33;;;;;;;;;;5028624;28;20426;-67
2022/10/09 06:03:26;;;;;;;3.25;1.60;;;;;;;;;;5010463;28;20418;-67
2022/10/09 06:05:52;;;;;;;6.85;2.00;;;;;;;;;;5028462;28;20451;-67
2022/10/09 06:08:17;;;;;;;4.97;1.92;;;;;;;;;;5028789;28;20567;-67
2022/10/09 06:10:42;;;;;;;2.88;1.42;;;;;;;;;;5028524;28;20502;-68
2022/10/09 06:13:07;;;;;;;5.75;1.77;;;;;;;;;;5028761;28;20533;-67
2022/10/09 06:15:33;;;;;;;5.57;2.10;;;;;;;;;;5028089;28;20595;-67
2022/10/09 06:17:58;;;;;;;10.93;1.95;;;;;;;;;;5029405;28;20510;-67
2022/10/09 06:20:23;;;;;;;3.60;1.80;;;;;;;;;;5028491;28;20417;-67
2022/10/09 06:22:50;;;;;;;8.23;2.30;;;;;;;;;;5028560;28;20356;-67
2022/10/09 06:25:15;;;;;;;5.60;1.80;;;;;;;;;;5010171;28;20354;-67
2022/10/09 06:27:40;;;;;;;7.95;1.55;;;;;;;;;;5029147;28;20040;-67
2022/10/09 06:30:06;;;;;;;5.50;1.67;;;;;;;;;;5028379;28;20398;-67
2022/10/09 06:32:32;;;;;;;6.38;1.65;;;;;;;;;;5027963;28;20439;-67
2022/10/09 06:34:57;;;;;;;3.33;1.70;;;;;;;;;;5029910;28;20024;-68
2022/10/09 06:37:22;;;;;;;5.15;2.08;;;;;;;;;;5028630;28;20036;-67
2022/10/09 06:39:48;;;;;;;5.18;2.05;;;;;;;;;;5010012;28;20393;-67
2022/10/09 06:42:13;;;;;;;3.70;1.77;;;;;;;;;;5028427;28;20456;-67
2022/10/09 06:44:40;;;;;;;4.47;1.98;;;;;;;;;;5029140;28;20426;-67
2022/10/09 06:47:05;;;;;;;5.18;1.90;;;;;;;;;;5028629;28;20398;-67
2022/10/09 06:49:31;;;;;;;2.65;1.63;;;;;;;;;;5009789;28;20425;-67
2022/10/09 06:51:57;;;;;;;5.75;2.50;;;;;;;;;;5027850;28;20316;-67
2022/10/09 06:54:22;;;;;;;3.13;1.60;;;;;;;;;;5009501;28;20465;-68
2022/10/09 06:56:48;;;;;;;2.58;1.42;;;;;;;;;;5028050;28;20519;-67
2022/10/09 06:59:13;;;;;;;2.72;1.40;;;;;;;;;;5029864;28;20489;-67
2022/10/09 07:01:38;;;;;;;8.35;1.88;;;;;;;;;;5027874;28;20368;-67
2022/10/09 07:04:12;;;;;;;5.50;1.60;;;;;;;;;;5027932;28;20389;-67
2022/10/09 07:06:40;;;;;;;6.43;1.33;;;;;;;;;;5027991;28;20408;-67
2022/10/09 07:09:10;;;;;;;2.70;1.35;;;;;;;;;;5010126;28;20405;-67
2022/10/09 07:11:38;;;;;;;5.88;1.85;;;;;;;;;;5028260;28;20351;-67
2022/10/09 07:14:05;;;;;;;3.47;1.33;;;;;;;;;;5009498;28;20359;-67
2022/10/09 07:16:33;;;;;;;3.40;1.60;;;;;;;;;;5005750;28;20368;-67
2022/10/09 07:19:00;;;;;;;5.53;2.10;;;;;;;;;;5008845;28;20469;-67
2022/10/09 07:21:25;;;;;;;5.75;1.40;;;;;;;;;;5008933;28;20439;-67
2022/10/09 07:23:52;;;;;;;8.88;1.45;;;;;;;;;;5008004;28;20374;-67
2022/10/09 07:26:24;;;;;;;2.90;1.58;;;;;;;;;;5008943;28;20336;-67
2022/10/09 07:28:49;;;;;;;3.83;1.45;;;;;;;;;;5006118;28;20042;-67
2022/10/09 07:31:15;;;;;;;3.22;1.20;;;;;;;;;;5007615;28;20037;-67
2022/10/09 07:33:40;;;;;;;4.20;1.50;;;;;;;;;;5006293;28;20111;-67
2022/10/09 07:36:07;;;;;;;3.17;1.33;;;;;;;;;;5007677;28;20079;-67
2022/10/09 07:38:33;;;;;;;5.70;1.40;;;;;;;;;;5007791;28;20474;-67
2022/10/09 07:41:00;;;;;;;4.60;1.52;;;;;;;;;;5006301;28;20447;-67
2022/10/09 07:43:25;;;;;;;3.80;1.00;;;;;;;;;;5006045;28;20345;-67
2022/10/09 07:45:51;;;;;;;5.95;1.50;;;;;;;;;;5008296;28;20032;-67
2022/10/09 07:48:16;;;;;;;6.68;1.88;;;;;;;;;;5007698;28;20111;-67
2022/10/09 07:50:41;;;;;;;2.47;1.17;;;;;;;;;;5007884;28;20111;-67
2022/10/09 07:53:07;;;;;;;4.57;2.00;;;;;;;;;;5009361;28;20393;-67
2022/10/09 07:55:33;;;;;;;5.95;1.90;;;;;;;;;;5009576;28;20498;-67
2022/10/09 07:57:58;;;;;;;3.25;1.65;;;;;;;;;;5007981;28;20436;-67
2022/10/09 08:00:23;;;;;;;3.53;1.35;;;;;;;;;;5008213;28;20025;-67
2022/10/09 08:02:49;;;;;;;4.65;1.35;;;;;;;;;;5007255;28;20573;-67
2022/10/09 08:05:14;;;;;;;3.40;1.30;;;;;;;;;;5007355;28;20462;-67
2022/10/09 08:07:39;;;;;;;1.60;1.25;;;;;;;;;;5007310;28;20364;-67
2022/10/09 08:10:05;;;;;;;5.55;1.23;;;;;;;;;;5007115;28;20529;-67
2022/10/09 08:12:30;;;;;;;4.30;1.13;;;;;;;;;;5007427;28;20480;-67
2022/10/09 08:14:56;;;;;;;3.08;1.00;;;;;;;;;;5012520;28;20048;-67
2022/10/09 08:17:21;;;;;;;2.83;1.05;;;;;;;;;;5027928;28;20530;-67
2022/10/09 08:19:47;;;;;;;6.35;1.17;;;;;;;;;;5027487;28;20379;-67
2022/10/09 08:22:13;;;;;;;3.05;1.35;;;;;;;;;;5026802;28;20442;-67
2022/10/09 08:24:38;;;;;;;1.80;1.10;;;;;;;;;;5027005;28;20446;-67
2022/10/09 08:27:04;;;;;;;4.50;1.60;;;;;;;;;;5027890;28;20338;-67
2022/10/09 08:29:29;;;;;;;3.75;1.20;;;;;;;;;;5009960;28;20430;-67
2022/10/09 08:31:55;;;;;;;3.28;1.30;;;;;;;;;;5032055;28;20093;-67
2022/10/09 08:34:20;;;;;;;2.60;1.40;;;;;;;;;;5030620;28;20304;-67
2022/10/09 08:36:45;;;;;;;4.38;1.55;;;;;;;;;;5030615;28;20312;-67
2022/10/09 08:39:11;;;;;;;4.20;1.60;;;;;;;;;;5031136;28;20395;-67
2022/10/09 08:41:47;;;;;;;2.05;0.93;;;;;;;;;;5011998;28;20320;-67
2022/10/09 08:44:30;;;;;;;6.80;1.48;;;;;;;;;;5012058;28;20454;-67
2022/10/09 08:47:14;;;;;;;2.50;1.17;;;;;;;;;;5012735;28;20413;-67
2022/10/09 08:49:59;;;;;;;2.08;0.90;;;;;;;;;;5030080;28;20453;-67
2022/10/09 08:52:51;;;;;;;3.13;1.02;;;;;;;;;;5012207;28;20028;-67
2022/10/09 08:55:22;;;;;;;5.35;1.40;;;;;;;;;;5011941;28;20435;-67
2022/10/09 08:58:03;;;;;;;4.60;1.90;;;;;;;;;;5029908;28;20454;-67
2022/10/09 09:00:34;;;;;;;2.75;1.52;;;;;;;;;;5030078;28;20320;-67
2022/10/09 09:03:03;;;;;;;2.63;1.15;;;;;;;;;;5029891;28;20420;-67
2022/10/09 09:05:51;;;;;;;4.00;1.55;;;;;;;;;;5029948;28;20351;-67
2022/10/09 09:08:47;;;;;;;6.10;1.90;;;;;;;;;;5030837;28;20055;-67
2022/10/09 09:11:28;;;;;;;2.60;1.30;;;;;;;;;;5011693;28;20789;-67
2022/10/09 09:14:08;;;;;;;2.10;1.15;;;;;;;;;;5029607;28;20350;-67
2022/10/09 09:16:50;;;;;;;3.80;1.17;;;;;;;;;;5007664;28;20405;-67
2022/10/09 09:19:48;;;;;;;2.33;0.82;;;;;;;;;;5008195;28;20474;-67
2022/10/09 09:22:15;;;;;;;1.02;0.90;;;;;;;;;;4955176;28;20042;-67
2022/10/09 09:24:48;;;;;;;2.75;1.00;;;;;;;;;;5009727;28;20474;-67
2022/10/09 09:27:18;;;;;;;3.47;0.95;;;;;;;;;;5009331;28;20339;-67
2022/10/09 09:30:12;;;;;;;4.65;1.30;;;;;;;;;;5007986;28;20577;-67
2022/10/09 09:32:48;;;;;;;3.83;1.30;;;;;;;;;;5003666;28;20539;-67
2022/10/09 09:35:32;;;;;;;3.00;1.05;;;;;;;;;;5008763;28;20378;-67
2022/10/09 09:37:58;;;;;;;3.10;1.30;;;;;;;;;;5009473;28;20461;-67
2022/10/09 09:40:29;;;;;;;2.50;1.13;;;;;;;;;;5008896;28;20443;-67
2022/10/09 09:42:55;;;;;;;2.08;0.88;;;;;;;;;;5007181;28;20356;-67
2022/10/09 09:45:22;;;;;;;3.28;1.42;;;;;;;;;;5011579;28;20024;-67
2022/10/09 09:47:51;;;;;;;4.35;1.38;;;;;;;;;;5008896;28;20450;-67
2022/10/09 09:50:26;;;;;;;;;;;;;;;;;;5010070;28;20366;-67
2022/10/09 09:52:52;;;;;;;6.70;1.00;;;;;;;;;;5010214;28;20263;-67
2022/10/09 09:55:27;;;;;;;1.63;0.88;;;;;;;;;;5007479;28;20478;-67
2022/10/09 09:57:59;;;;;;;5.13;1.20;;;;;;;;;;5009089;28;20432;-67
2022/10/09 10:00:25;;;;;;;5.75;1.83;;;;;;;;;;5007550;28;20033;-67
2022/10/09 10:03:01;;;;;;;1.45;0.80;;;;;;;;;;5010968;28;20039;-67
2022/10/09 10:05:26;;;;;;;3.40;1.38;;;;;;;;;;5010878;28;20503;-67
2022/10/09 10:07:52;;;;;;;2.83;1.15;;;;;;;;;;5008662;28;20519;-67
2022/10/09 10:10:19;;;;;;;1.67;0.90;;;;;;;;;;5007150;28;20505;-67
2022/10/09 10:12:46;;;;;;;4.63;1.48;;;;;;;;;;5008554;28;20431;-67
2022/10/09 10:15:17;;;;;;;2.55;1.10;;;;;;;;;;5015743;28;20067;-67
2022/10/09 10:17:42;;;;;;;4.68;1.08;;;;;;;;;;5028624;28;20366;-67
2022/10/09 10:20:07;;;;;;;3.10;1.10;;;;;;;;;;5028937;28;20358;-67
2022/10/09 10:22:33;;;;;;;3.30;1.15;;;;;;;;;;5028471;28;20343;-67
2022/10/09 10:24:59;;;;;;;2.58;0.95;;;;;;;;;;5029004;28;20442;-67
2022/10/09 10:27:41;;;;;;;1.67;1.02;;;;;;;;;;5010823;28;20320;-67
2022/10/09 10:30:13;;;;;;;1.95;1.00;;;;;;;;;;5010023;28;20024;-68
2022/10/09 10:33:04;;;;;;;2.35;1.58;;;;;;;;;;5009733;28;20131;-67
2022/10/09 10:35:33;;;;;;;3.20;1.40;;;;;;;;;;5010162;28;20441;-67
2022/10/09 10:38:12;;;;;;;2.60;1.10;;;;;;;;;;5028111;28;20389;-67
2022/10/09 10:40:58;;;;;;;2.20;1.10;;;;;;;;;;5028244;28;20488;-68
2022/10/09 10:43:38;;;;;;;2.95;1.10;;;;;;;;;;5028376;28;20462;-67
2022/10/09 10:46:11;;;;;;;2.22;1.02;;;;;;;;;;5010008;28;20509;-67
2022/10/09 10:48:41;;;;;;;2.55;1.10;;;;;;;;;;5028567;28;20485;-67
2022/10/09 10:51:25;;;;;;;2.58;1.15;;;;;;;;;;5009896;28;20439;-67
2022/10/09 10:54:12;;;;;;;2.20;1.05;;;;;;;;;;5027555;28;20599;-67
2022/10/09 10:56:41;;;;;;;1.90;1.17;;;;;;;;;;5028040;28;20346;-67
2022/10/09 10:59:06;;;;;;;;;;;;;;;;;;5010511;28;20444;-67
2022/10/09 11:01:53;;;;;;;2.87;1.27;;;;;;;;;;5027890;28;20024;-67
2022/10/09 11:04:32;;;;;;;3.72;1.17;;;;;;;;;;5029095;28;20270;-67
2022/10/09 11:07:16;;;;;;;1.05;0.80;;;;;;;;;;5009460;28;20435;-67
2022/10/09 11:09:56;;;;;;;2.90;0.85;;;;;;;;;;5027905;28;20435;-68
2022/10/09 11:12:29;;;;;;;1.55;0.90;;;;;;;;;;5027602;28;20374;-67
2022/10/09 11:15:30;;;;;;;0.55;0.40;;;;;;;;;;5005934;28;20464;-67
2022/10/09 11:18:24;;;;;;;2.08;0.68;;;;;;;;;;4985548;28;20351;-67
2022/10/09 11:21:25;;;;;;;1.58;0.80;;;;;;;;;;5008049;28;20029;-67
2022/10/09 11:24:29;;;;;;;4.47;0.73;;;;;;;;;;5002650;28;20451;-67
2022/10/09 11:27:09;;;;;;;2.80;1.38;;;;;;;;;;5007538;28;20426;-67
2022/10/09 11:29:49;;;;;;;3.17;1.13;;;;;;;;;;5006334;28;20054;-67
2022/10/09 11:32:19;;;;;;;2.70;0.95;;;;;;;;;;5007699;28;20429;-67
2022/10/09 11:34:58;;;;;;;1.30;0.50;;;;;;;;;;5006361;28;20447;-67
2022/10/09 11:37:28;;;;;;;1.27;0.85;;;;;;;;;;5006342;28;20046;-67
2022/10/09 11:39:55;;;;;;;1.58;0.80;;;;;;;;;;5006154;28;20459;-67
2022/10/09 11:42:22;;;;;;;1.67;1.02;;;;;;;;;;5007602;28;20514;-67
2022/10/09 11:45:04;;;;;;;1.55;0.70;;;;;;;;;;5005723;28;20469;-67
2022/10/09 11:47:42;;;;;;;1.60;0.80;;;;;;;;;;5006737;28;20465;-67
2022/10/09 11:50:45;;;;;;;5.60;1.10;;;;;;;;;;5007493;28;20390;-68
2022/10/09 11:53:15;;;;;;;4.75;0.98;;;;;;;;;;5007193;28;20509;-67
2022/10/09 11:55:41;;;;;;;3.03;0.80;;;;;;;;;;5006356;28;20374;-67
2022/10/09 11:58:17;;;;;;;1.13;0.50;;;;;;;;;;5007346;28;20466;-67
2022/10/09 12:00:43;;;;;;;0.90;0.50;;;;;;;;;;5010190;28;20334;-67
2022/10/09 12:03:23;;;;;;;1.40;0.77;;;;;;;;;;5005988;28;20342;-67
2022/10/09 12:05:49;;;;;;;0.93;0.47;;;;;;;;;;5010154;28;20450;-67
2022/10/09 12:08:17;;;;;;;1.17;0.90;;;;;;;;;;5010106;28;20339;-68
2022/10/09 12:11:14;;;;;;;0.60;0.40;;;;;;;;;;5011863;28;20466;-67
2022/10/09 12:13:52;;;;;;;0.53;0.53;;;;;;;;;;5009981;28;20390;-67
2022/10/09 12:16:53;;;;;;;1.92;0.80;;;;;;;;;;5009475;28;20336;-67
2022/10/09 12:19:26;;;;;;;0.73;0.50;;;;;;;;;;4949826;28;20682;-67
2022/10/09 12:22:05;;;;;;;3.97;1.17;;;;;;;;;;4997827;28;20333;-67
2022/10/09 12:24:36;;;;;;;1.45;0.70;;;;;;;;;;5009333;28;20331;-67
2022/10/09 12:27:03;;;;;;;1.10;0.60;;;;;;;;;;5009864;28;20060;-67
2022/10/09 12:29:51;;;;;;;4.18;0.80;;;;;;;;;;5009519;28;20378;-67
2022/10/09 12:32:17;;;;;;;;;;;;;;;;;;5010296;28;20110;-67
2022/10/09 12:34:47;;;;;;;1.67;0.70;;;;;;;;;;5008964;28;20246;-67
2022/10/09 12:37:14;;;;;;;1.63;0.60;;;;;;;;;;5008816;28;20400;-67
2022/10/09 12:39:40;;;;;;;1.67;0.95;;;;;;;;;;5010441;28;20033;-67
2022/10/09 12:42:08;;;;;;;1.17;0.50;;;;;;;;;;5008751;28;20450;-67
2022/10/09 12:44:38;;;;;;;0.43;0.40;;;;;;;;;;5009115;28;20451;-67
2022/10/09 12:47:06;;;;;;;1.13;0.70;;;;;;;;;;5009066;28;20108;-67
2022/10/09 12:49:31;;;;;;;1.73;0.70;;;;;;;;;;5010165;28;20450;-67
2022/10/09 12:51:58;;;;;;;3.20;0.60;;;;;;;;;;5010092;28;20514;-67
2022/10/09 12:54:24;;;;;;;2.13;0.65;;;;;;;;;;5009968;28;20040;-67
2022/10/09 12:56:51;;;;;;;1.83;0.80;;;;;;;;;;5009901;28;20415;-67
2022/10/09 12:59:17;;;;;;;1.13;0.85;;;;;;;;;;5009053;28;20083;-67
2022/10/09 13:01:43;;;;;;;1.63;0.70;;;;;;;;;;5009915;28;20503;-67
2022/10/09 13:04:31;;;;;;;1.73;0.70;;;;;;;;;;5008399;28;20130;-67
2022/10/09 13:07:01;;;;;;;1.35;0.73;;;;;;;;;;5009822;28;20431;-67
2022/10/09 13:09:38;;;;;;;1.30;0.77;;;;;;;;;;5008335;28;20382;-67
2022/10/09 13:12:04;;;;;;;2.78;0.80;;;;;;;;;;5009919;28;20431;-67
2022/10/09 13:14:51;;;;;;;1.88;0.80;;;;;;;;;;5010346;28;20446;-67
2022/10/09 13:17:28;;;;;;;1.43;0.90;;;;;;;;;;5028962;28;20495;-67
2022/10/09 13:19:57;;;;;;;1.25;0.80;;;;;;;;;;5029483;28;20363;-67
2022/10/09 13:22:29;;;;;;;1.27;0.50;;;;;;;;;;5029988;28;20444;-67
2022/10/09 13:24:57;;;;;;;0.93;0.73;;;;;;;;;;5029734;28;20502;-67
2022/10/09 13:27:25;;;;;;;1.40;0.77;;;;;;;;;;5011094;28;20305;-67
2022/10/09 13:29:51;;;;;;;1.42;0.70;;;;;;;;;;5011061;28;20475;-67
2022/10/09 13:32:17;;;;;;;1.05;0.70;;;;;;;;;;5029713;28;20455;-67
2022/10/09 13:34:43;;;;;;;0.82;0.70;;;;;;;;;;5029072;28;20113;-67
2022/10/09 13:37:13;;;;;;;1.45;0.52;;;;;;;;;;5029784;28;20416;-67
2022/10/09 13:39:38;;;;;;;2.92;0.55;;;;;;;;;;5029475;28;20059;-67
2022/10/09 13:42:03;;;;;;;1.88;0.85;;;;;;;;;;5029142;28;20455;-67
2022/10/09 13:44:29;;;;;;;2.00;0.70;;;;;;;;;;5029184;28;20399;-67
2022/10/09 13:46:54;;;;;;;1.80;0.80;;;;;;;;;;5029111;28;20331;-67
2022/10/09 13:49:19;;;;;;;1.17;0.70;;;;;;;;;;5029011;28;20514;-67
2022/10/09 13:51:45;;;;;;;1.20;0.68;;;;;;;;;;5010957;28;20445;-67
2022/10/09 13:54:10;;;;;;;3.88;1.00;;;;;;;;;;5029380;28;20470;-67
2022/10/09 13:56:35;;;;;;;1.95;0.50;;;;;;;;;;5028948;28;20450;-67
2022/10/09 13:59:01;;;;;;;1.30;0.60;;;;;;;;;;5029163;28;20570;-67
2022/10/09 14:01:26;;;;;;;1.08;0.60;;;;;;;;;;5028827;28;20454;-67
2022/10/09 14:03:51;;;;;;;1.50;0.68;;;;;;;;;;5028985;28;20389;-67
2022/10/09 14:06:17;;;;;;;1.08;0.70;;;;;;;;;;5029003;28;20550;-67
2022/10/09 14:08:42;;;;;;;2.95;0.50;;;;;;;;;;5029317;28;20401;-67
2022/10/09 14:11:07;;;;;;;1.05;0.60;;;;;;;;;;5029760;28;20468;-67
2022/10/09 14:13:33;;;;;;;0.98;0.63;;;;;;;;;;5028688;28;20425;-67
2022/10/09 14:15:58;;;;;;;2.25;0.63;;;;;;;;;;5028584;28;20447;-67
2022/10/09 14:18:24;;;;;;;1.25;0.70;;;;;;;;;;5010367;28;20445;-67
2022/10/09 14:20:49;;;;;;;1.35;0.85;;;;;;;;;;5010370;28;20491;-67
2022/10/09 14:23:15;;;;;;;1.98;0.70;;;;;;;;;;5028507;28;20451;-67
2022/10/09 14:25:40;;;;;;;0.98;0.50;;;;;;;;;;5010270;28;20395;-67
2022/10/09 14:28:06;;;;;;;1.90;0.90;;;;;;;;;;5027801;28;20449;-67
2022/10/09 14:30:31;;;;;;;4.13;0.85;;;;;;;;;;5010616;28;20544;-67
2022/10/09 14:32:57;;;;;;;1.35;0.68;;;;;;;;;;5028614;28;20467;-67
2022/10/09 14:35:23;;;;;;;1.08;0.60;;;;;;;;;;5009921;28;20417;-67
2022/10/09 14:37:48;;;;;;;1.80;0.98;;;;;;;;;;5028152;28;20343;-67
2022/10/09 14:40:14;;;;;;;2.38;0.60;;;;;;;;;;5028648;28;20032;-67
2022/10/09 14:42:39;;;;;;;1.30;0.70;;;;;;;;;;5028270;28;20450;-67
2022/10/09 14:45:05;;;;;;;0.88;0.68;;;;;;;;;;5028060;28;20099;-67
2022/10/09 14:47:31;;;;;;;1.83;0.70;;;;;;;;;;5009458;28;20359;-67
2022/10/09 14:49:56;;;;;;;1.20;0.80;;;;;;;;;;5028127;28;20351;-67
2022/10/09 14:52:21;;;;;;;0.65;0.60;;;;;;;;;;5028319;28;20302;-67
2022/10/09 14:54:47;;;;;;;1.45;0.65;;;;;;;;;;5027829;28;20297;-67
2022/10/09 14:57:13;;;;;;;2.88;0.75;;;;;;;;;;5027944;28;20526;-67